Terminal Aerodrome Forecast
Issued by NWS Chicago, IL

Home | Current Version | Previous Version | Text Only | Print | Product List | Glossary Off
Versions: 1 2 3 4 5 6 7 8 9 10 11 12 13 14 15 16 17 18 19 20 21 22 23 24 25 26 27 28 29 30 31 32 33

000
FTUS43 KLOT 250535
TAFRFD
TAF
KRFD 250535Z 2506/2606 08012G18KT P6SM VCSH OVC050
     FM251300 08015G19KT 5SM -RA OVC015
     FM251600 07016G21KT 4SM -RA BR OVC008
     FM252200 06015G24KT P6SM -RA FEW015 OVC022
     FM260000 04012KT P6SM SCT025=

USA.gov is the U.S. government's official web portal to all federal, state and local government web resources and services.